createdAt,value
2019-01-20T01:02:45.079Z,-0.77
2019-01-20T01:07:46.370Z,-0.81
2019-01-20T01:12:47.683Z,-0.87
2019-01-20T01:17:48.971Z,-1.04
2019-01-20T01:22:50.282Z,-1.11
2019-01-20T01:27:51.578Z,-1.19
2019-01-20T02:30:49.325Z,-1.36
2019-01-20T02:35:50.598Z,-1.45
2019-01-20T02:40:51.887Z,-1.45
2019-01-20T02:45:53.179Z,-1.45
2019-01-20T02:50:54.452Z,-1.38
2019-01-20T02:55:56.468Z,-1.40
2019-01-20T04:04:20.332Z,-1.76
2019-01-20T04:09:21.619Z,-1.78
2019-01-20T04:14:23.657Z,-1.83
2019-01-20T04:19:24.973Z,-1.84
2019-01-20T04:24:26.315Z,-1.84
2019-01-20T04:29:28.348Z,-1.84
2019-01-20T06:03:13.966Z,-2.06
2019-01-20T06:08:15.441Z,-2.06
2019-01-20T06:13:16.860Z,-2.10
2019-01-20T06:18:19.491Z,-2.10
2019-01-20T06:23:21.083Z,-2.13
2019-01-20T06:28:30.357Z,-2.27
2019-01-20T06:33:33.259Z,-2.34
2019-01-20T06:38:34.691Z,-2.25
2019-01-20T06:43:35.998Z,-2.24
2019-01-20T06:48:37.309Z,-2.22
2019-01-20T06:53:38.596Z,-2.19
2019-01-20T06:58:40.640Z,-2.18
2019-01-20T07:03:42.201Z,-2.16
2019-01-20T07:08:43.637Z,-2.16
2019-01-20T07:13:47.183Z,-2.09
2019-01-20T07:18:49.502Z,-2.04
2019-01-20T07:23:50.793Z,-2.00
2019-01-20T07:28:52.849Z,-1.69
2019-01-20T07:33:54.174Z,-1.68
2019-01-20T07:38:56.897Z,-1.47
2019-01-20T07:43:59.270Z,-1.13
2019-01-20T07:49:00.641Z,-1.18
2019-01-20T07:54:01.965Z,-1.31
2019-01-20T07:59:03.805Z,-1.39
2019-01-20T08:04:05.477Z,-1.22
2019-01-20T08:09:07.588Z,-1.03
2019-01-20T08:14:08.964Z,-0.93
2019-01-20T08:19:10.288Z,-0.78
2019-01-20T08:24:11.587Z,-0.61
2019-01-20T08:29:13.040Z,-0.51
2019-01-20T08:34:15.100Z,-0.42
2019-01-20T08:39:16.447Z,-0.32
2019-01-20T08:44:17.784Z,-0.15
2019-01-20T08:49:19.146Z,-0.05
2019-01-20T08:54:20.501Z,-0.07
2019-01-20T08:59:21.809Z,0.00
2019-01-20T09:04:23.133Z,0.01
2019-01-20T09:09:24.446Z,0.10
2019-01-20T09:14:25.785Z,0.23
2019-01-20T09:19:27.092Z,0.17
2019-01-20T09:24:28.385Z,0.33
2019-01-20T09:29:29.807Z,0.42
2019-01-20T09:34:31.104Z,0.47
2019-01-20T09:39:32.407Z,0.61
2019-01-20T09:44:33.797Z,0.74
2019-01-20T09:49:35.228Z,0.78
2019-01-20T09:54:36.687Z,0.91
2019-01-20T09:59:39.362Z,0.99
2019-01-20T10:04:40.669Z,1.02
2019-01-20T10:09:42.119Z,1.05
2019-01-20T10:14:43.458Z,1.01
2019-01-20T10:19:44.780Z,1.08
2019-01-20T10:24:46.093Z,1.21
2019-01-20T10:29:47.409Z,1.33
2019-01-20T10:34:48.757Z,1.50
2019-01-20T10:39:50.072Z,1.29
2019-01-20T10:44:51.402Z,1.54
2019-01-20T10:49:53.534Z,1.76
2019-01-20T10:54:54.868Z,1.68
2019-01-20T10:59:56.177Z,1.99
2019-01-20T11:04:58.466Z,1.87
2019-01-20T11:09:59.782Z,1.40
2019-01-20T11:15:01.878Z,1.37
2019-01-20T11:20:03.979Z,1.13
2019-01-20T11:25:06.196Z,0.93
2019-01-20T11:30:07.553Z,1.25
2019-01-20T11:35:09.714Z,1.33
2019-01-20T11:40:11.067Z,1.70
2019-01-20T11:45:19.159Z,1.68
2019-01-20T11:50:21.036Z,1.92
2019-01-20T11:55:23.723Z,1.06
2019-01-20T12:00:28.933Z,0.99
2019-01-20T12:05:32.272Z,1.33
2019-01-20T12:10:33.642Z,1.18
2019-01-20T12:15:34.942Z,1.54
2019-01-20T12:20:36.307Z,1.24
2019-01-20T12:25:37.589Z,1.62
2019-01-20T12:30:38.879Z,1.72
2019-01-20T12:35:40.239Z,2.18
2019-01-20T12:40:41.813Z,1.89
2019-01-20T12:45:43.384Z,1.93
2019-01-20T12:50:44.964Z,2.32
2019-01-20T12:55:46.276Z,2.45
2019-01-20T13:00:47.825Z,2.51
2019-01-20T13:05:50.034Z,2.54
2019-01-20T13:10:51.333Z,2.41
2019-01-20T13:15:52.725Z,2.21
2019-01-20T13:20:54.334Z,2.08
2019-01-20T13:25:55.787Z,2.17
2019-01-20T13:30:57.253Z,2.33
2019-01-20T13:35:58.697Z,2.50
2019-01-20T13:41:00.776Z,2.54
2019-01-20T13:46:02.076Z,2.53
2019-01-20T13:51:03.581Z,2.61
2019-01-20T13:56:05.019Z,2.72
2019-01-20T14:01:06.461Z,2.84
2019-01-20T14:06:08.521Z,2.93
2019-01-20T14:11:09.868Z,2.99
2019-01-20T14:16:11.180Z,2.99
2019-01-20T14:21:12.513Z,2.95
2019-01-20T14:26:14.580Z,3.00
2019-01-20T14:31:19.144Z,3.01
2019-01-20T14:36:22.625Z,3.00
2019-01-20T14:41:24.039Z,3.03
2019-01-20T14:46:30.376Z,3.06
2019-01-20T14:51:36.470Z,3.03
2019-01-20T14:56:38.576Z,2.97
2019-01-20T15:01:39.993Z,2.87
2019-01-20T15:06:41.318Z,2.80
2019-01-20T15:11:42.663Z,2.86
2019-01-20T15:16:44.717Z,2.84
2019-01-20T15:21:46.140Z,2.84
2019-01-20T15:26:47.565Z,2.84
2019-01-20T15:31:49.077Z,2.83
2019-01-20T15:36:50.427Z,2.83
2019-01-20T15:41:51.748Z,2.76
2019-01-20T15:46:53.070Z,2.70
2019-01-20T15:51:54.436Z,2.68
2019-01-20T15:56:55.905Z,2.57
2019-01-20T16:01:57.299Z,2.48
2019-01-20T16:06:58.686Z,2.53
2019-01-20T16:12:00.000Z,2.48
2019-01-20T16:17:02.599Z,2.49
2019-01-20T16:22:04.007Z,2.44
2019-01-20T16:27:05.465Z,2.41
2019-01-20T16:32:07.294Z,2.36
2019-01-20T16:37:08.681Z,2.36
2019-01-20T16:42:10.004Z,2.28
2019-01-20T16:47:12.266Z,2.29
2019-01-20T16:52:13.732Z,2.16
2019-01-20T16:57:15.098Z,2.18
2019-01-20T17:02:17.225Z,2.13
2019-01-20T17:07:18.534Z,2.12
2019-01-20T17:12:19.880Z,2.13
2019-01-20T17:17:23.249Z,2.15
2019-01-20T17:22:25.606Z,2.16
2019-01-20T17:27:26.888Z,2.10
2019-01-20T17:32:28.916Z,2.17
2019-01-20T17:37:30.232Z,2.16
2019-01-20T17:42:31.529Z,2.19
2019-01-20T17:47:33.934Z,2.18
2019-01-20T17:52:41.809Z,2.20
2019-01-20T17:57:45.938Z,2.15
2019-01-20T18:02:50.913Z,2.17
2019-01-20T18:07:55.657Z,2.13
2019-01-20T18:13:08.422Z,2.04
2019-01-20T18:18:09.763Z,2.00
2019-01-20T18:23:11.217Z,2.04
2019-01-20T18:28:12.572Z,2.03
2019-01-20T18:33:13.922Z,1.93
2019-01-20T18:38:15.245Z,1.99
2019-01-20T18:43:16.665Z,1.91
2019-01-20T18:48:21.645Z,1.93
2019-01-20T18:53:22.988Z,1.85
2019-01-20T18:58:31.507Z,1.81
2019-01-20T19:03:40.617Z,1.85
2019-01-20T19:08:41.929Z,1.79
2019-01-20T19:13:43.232Z,1.73
2019-01-20T19:18:44.550Z,1.68
2019-01-20T19:23:45.904Z,1.73
2019-01-20T19:28:47.216Z,1.56
2019-01-20T19:33:48.565Z,1.61
2019-01-20T19:38:50.941Z,1.42
2019-01-20T19:43:57.388Z,1.37
2019-01-20T19:48:59.434Z,1.57
2019-01-20T19:54:00.779Z,1.42
2019-01-20T19:59:11.213Z,1.61
2019-01-20T20:04:17.523Z,1.45
2019-01-20T20:09:19.219Z,1.42
2019-01-20T20:14:21.174Z,1.46
2019-01-20T20:19:30.289Z,1.36
2019-01-20T20:24:33.410Z,1.36
2019-01-20T20:29:35.689Z,1.34
2019-01-20T20:34:37.814Z,1.44
2019-01-20T20:39:39.261Z,1.47
2019-01-20T20:44:40.558Z,1.56
2019-01-20T20:49:41.878Z,1.47
2019-01-20T20:54:50.461Z,1.47
2019-01-20T20:59:56.346Z,1.57
2019-01-20T21:04:57.671Z,1.58
2019-01-20T21:09:59.109Z,1.37
2019-01-20T21:15:03.274Z,1.48
2019-01-20T21:20:01.741Z,1.59
2019-01-20T21:25:03.056Z,1.37
2019-01-20T21:30:06.199Z,1.55
2019-01-20T21:35:14.759Z,1.43
2019-01-20T21:40:16.180Z,1.51
2019-01-20T21:45:18.239Z,1.50
2019-01-20T21:50:21.638Z,1.37
2019-01-20T21:55:22.966Z,1.48
2019-01-20T22:00:24.268Z,1.38
2019-01-20T22:05:25.572Z,1.41
2019-01-20T22:10:27.649Z,1.40
2019-01-20T22:15:29.706Z,1.43
2019-01-20T22:20:31.073Z,1.32
2019-01-20T22:25:32.445Z,1.32
2019-01-20T22:30:33.767Z,1.34
2019-01-20T22:35:35.065Z,1.29
2019-01-20T22:40:36.469Z,1.26
2019-01-20T22:45:37.765Z,1.22
2019-01-20T22:50:39.069Z,1.26
2019-01-20T22:55:40.395Z,1.38
2019-01-20T23:32:22.867Z,1.45
2019-01-20T23:37:24.179Z,1.41
2019-01-20T23:42:26.215Z,1.40
2019-01-20T23:47:27.510Z,1.39
2019-01-20T23:52:28.812Z,1.36
2019-01-20T23:57:30.081Z,1.34
